Time;durP1;ratioP1;P1;durP2;ratioP2;P2;SDS_P1;SDS_P2;PMS_P1;PMS_P2;Temp;Humidity;BMP_temperature;BMP_pressure;BME280_temperature;BME280_humidity;BME280_pressure;Samples;Min_cycle;Max_cycle;Signal;HPM_P1;HPM_P2
2022/05/05 00:01:15;;;;;;;7.70;4.50;;;;;;;10.91;50.43;100539.45;130455;1266;108948;-77
2022/05/05 00:04:22;;;;;;;7.10;4.40;;;;;;;10.93;50.20;100533.23;130422;1267;108671;-77
2022/05/05 00:07:27;;;;;;;6.50;3.90;;;;;;;10.91;50.04;100536.19;130351;1267;109033;-77
2022/05/05 00:17:17;;;;;;;8.20;4.30;;;;;;;10.98;49.98;100530.75;130376;1267;108768;-77
2022/05/05 00:20:23;;;;;;;6.20;4.20;;;;;;;11.00;49.64;100534.33;130379;1267;108588;-78
2022/05/05 00:23:28;;;;;;;7.30;4.10;;;;;;;11.01;49.73;100531.34;130350;1267;108771;-78
2022/05/05 00:26:34;;;;;;;6.30;4.30;;;;;;;11.01;49.77;100534.55;130431;1267;108714;-76
2022/05/05 00:29:40;;;;;;;9.20;4.00;;;;;;;11.03;49.77;100532.64;130562;1266;106783;-77
2022/05/05 00:32:46;;;;;;;6.90;4.50;;;;;;;11.05;49.78;100534.59;130465;1267;108860;-76
2022/05/05 00:35:51;;;;;;;7.10;4.00;;;;;;;11.08;49.51;100533.38;130385;1267;107721;-77
2022/05/05 00:38:57;;;;;;;6.90;4.20;;;;;;;11.10;49.52;100531.91;130430;1267;108786;-76
2022/05/05 00:42:02;;;;;;;7.90;4.10;;;;;;;11.13;49.62;100535.18;130373;1267;108800;-76
2022/05/05 00:45:10;;;;;;;8.20;4.10;;;;;;;11.14;49.49;100535.09;130366;1266;108724;-77
2022/05/05 00:48:17;;;;;;;7.70;4.10;;;;;;;11.15;49.69;100535.55;130462;1267;108875;-76
2022/05/05 00:51:22;;;;;;;4.90;4.00;;;;;;;11.15;49.33;100536.05;130430;1267;107829;-77
2022/05/05 00:54:28;;;;;;;7.20;3.80;;;;;;;11.15;49.43;100537.68;130373;1267;108473;-77
2022/05/05 00:57:37;;;;;;;6.60;3.80;;;;;;;11.16;49.28;100538.66;130407;1267;108819;-76
2022/05/05 01:00:42;;;;;;;7.80;4.00;;;;;;;11.15;49.44;100534.61;130420;1267;108788;-76
2022/05/05 01:03:49;;;;;;;7.00;3.50;;;;;;;11.15;49.39;100536.28;130389;1267;109493;-75
2022/05/05 01:06:55;;;;;;;7.10;3.80;;;;;;;11.16;49.05;100536.19;130493;1267;108902;-75
2022/05/05 01:10:01;;;;;;;5.70;3.50;;;;;;;11.14;49.48;100540.91;130518;1267;108887;-76
2022/05/05 01:13:06;;;;;;;7.00;3.70;;;;;;;11.12;49.34;100537.61;130829;1267;108903;-76
2022/05/05 01:16:12;;;;;;;7.30;3.80;;;;;;;11.09;49.23;100536.85;130589;1266;108740;-77
2022/05/05 01:19:18;;;;;;;7.40;3.90;;;;;;;11.06;49.46;100538.73;130744;1267;108662;-76
2022/05/05 01:22:26;;;;;;;8.60;3.90;;;;;;;11.04;48.85;100537.81;130793;1267;109634;-76
2022/05/05 01:28:56;;;;;;;8.80;4.30;;;;;;;11.00;49.05;100536.08;130354;1267;108677;-74
2022/05/05 01:32:02;;;;;;;6.80;4.10;;;;;;;10.98;49.20;100534.82;130355;1267;108792;-76
2022/05/05 01:35:08;;;;;;;7.30;4.10;;;;;;;10.95;49.22;100535.28;130356;1267;108927;-76
2022/05/05 01:38:16;;;;;;;6.10;3.90;;;;;;;10.93;49.10;100537.13;130408;1267;108774;-74
2022/05/05 01:41:21;;;;;;;7.30;4.10;;;;;;;10.92;48.98;100538.40;130345;1267;108782;-73
2022/05/05 01:44:27;;;;;;;7.20;3.80;;;;;;;10.93;48.98;100534.07;130356;1267;108829;-75
2022/05/05 01:47:32;;;;;;;7.30;3.80;;;;;;;10.93;48.82;100539.07;130336;1267;108925;-75
2022/05/05 01:50:38;;;;;;;7.40;3.60;;;;;;;10.90;48.80;100537.39;130890;1267;108938;-78
2022/05/05 01:53:43;;;;;;;6.20;3.60;;;;;;;10.88;48.68;100538.70;131882;1267;107736;-79
2022/05/05 01:56:49;;;;;;;6.00;3.50;;;;;;;10.84;48.87;100534.75;130751;1267;108737;-76
2022/05/05 01:59:54;;;;;;;6.80;3.80;;;;;;;10.83;49.01;100533.86;130359;1267;108837;-76
2022/05/05 02:03:01;;;;;;;7.10;3.80;;;;;;;10.81;48.94;100527.57;130375;1267;108950;-74
2022/05/05 02:06:08;;;;;;;8.20;3.70;;;;;;;10.80;48.99;100530.04;130406;1267;108771;-76
2022/05/05 02:09:13;;;;;;;6.80;3.70;;;;;;;10.78;48.72;100526.96;130465;1267;107631;-76
2022/05/05 02:12:18;;;;;;;6.00;3.50;;;;;;;10.77;48.57;100527.26;130343;1270;108676;-75
2022/05/05 02:15:24;;;;;;;7.10;3.60;;;;;;;10.76;48.59;100527.15;130468;1267;107659;-77
2022/05/05 02:18:31;;;;;;;6.80;3.60;;;;;;;10.75;48.87;100527.26;130398;1267;108738;-75
2022/05/05 02:21:36;;;;;;;10.60;3.90;;;;;;;10.72;48.68;100526.88;130981;1267;108778;-77
2022/05/05 02:24:42;;;;;;;6.60;3.80;;;;;;;10.70;48.72;100523.69;130832;1267;108580;-74
2022/05/05 02:27:50;;;;;;;6.50;3.40;;;;;;;10.68;48.96;100523.14;130414;1267;108870;-75
2022/05/05 02:30:55;;;;;;;4.90;3.50;;;;;;;10.69;48.91;100517.22;130361;1267;108888;-78
2022/05/05 02:34:01;;;;;;;7.70;4.00;;;;;;;10.69;48.52;100520.04;130345;1267;108692;-77
2022/05/05 02:40:31;;;;;;;6.90;3.60;;;;;;;10.67;48.84;100513.11;130370;1267;108743;-74
2022/05/05 02:43:37;;;;;;;6.80;3.40;;;;;;;10.67;48.56;100515.64;130359;1267;108747;-75
2022/05/05 02:46:42;;;;;;;7.40;3.60;;;;;;;10.65;48.80;100508.89;130393;1267;108857;-78
2022/05/05 02:49:47;;;;;;;5.00;3.30;;;;;;;10.64;48.55;100510.90;130672;1267;107603;-79
2022/05/05 02:52:53;;;;;;;5.50;3.30;;;;;;;10.64;48.56;100512.84;130775;1267;108580;-82
2022/05/05 02:55:58;;;;;;;4.40;3.40;;;;;;;10.65;48.39;100511.39;130756;1267;108637;-78
2022/05/05 02:59:04;;;;;;;6.00;3.20;;;;;;;10.65;48.62;100511.02;130446;1267;108748;-76
2022/05/05 03:02:10;;;;;;;5.50;3.30;;;;;;;10.65;48.28;100513.63;130443;1267;108707;-78
2022/05/05 03:05:16;;;;;;;4.40;3.20;;;;;;;10.66;48.44;100515.16;130456;1267;107405;-78
2022/05/05 03:08:21;;;;;;;7.60;3.70;;;;;;;10.64;48.35;100518.74;130465;1267;108802;-77
2022/05/05 03:11:27;;;;;;;5.30;3.00;;;;;;;10.63;48.54;100515.08;130396;1267;108687;-79
2022/05/05 03:14:32;;;;;;;7.70;4.10;;;;;;;10.64;48.55;100516.48;130466;1267;108864;-79
2022/05/05 03:17:38;;;;;;;6.30;3.60;;;;;;;10.63;48.61;100517.11;130374;1267;108835;-79
2022/05/05 03:20:43;;;;;;;6.90;3.50;;;;;;;10.62;48.47;100518.19;130409;1266;108648;-77
2022/05/05 03:23:49;;;;;;;7.40;3.30;;;;;;;10.61;48.66;100517.17;130403;1267;108576;-78
2022/05/05 03:26:55;;;;;;;7.00;3.90;;;;;;;10.61;48.47;100520.28;130428;1266;107599;-78
2022/05/05 03:30:00;;;;;;;9.60;5.50;;;;;;;10.59;48.78;100522.16;130354;1267;107854;-77
2022/05/05 03:33:06;;;;;;;8.30;5.60;;;;;;;10.61;48.47;100516.71;130530;1267;108642;-77
2022/05/05 03:36:11;;;;;;;8.30;4.60;;;;;;;10.60;48.62;100521.06;130432;1267;108770;-77
2022/05/05 03:39:17;;;;;;;5.90;4.00;;;;;;;10.56;48.72;100518.38;130309;1267;108647;-77
2022/05/05 03:42:22;;;;;;;7.00;3.80;;;;;;;10.54;48.72;100521.39;130363;1267;108804;-78
2022/05/05 03:45:28;;;;;;;5.60;3.60;;;;;;;10.54;48.59;100519.68;130384;1267;108703;-79
2022/05/05 03:48:35;;;;;;;5.80;3.60;;;;;;;10.54;48.40;100523.25;130102;1267;108020;-78
2022/05/05 03:51:40;;;;;;;7.50;3.10;;;;;;;10.51;48.55;100526.48;130340;1267;108767;-79
2022/05/05 03:54:46;;;;;;;7.00;3.70;;;;;;;10.49;48.66;100525.70;130372;1267;108704;-78
2022/05/05 03:57:51;;;;;;;6.50;3.10;;;;;;;10.49;48.41;100529.09;130318;1267;108671;-78
2022/05/05 04:00:57;;;;;;;8.80;3.30;;;;;;;10.51;48.57;100531.29;130330;1267;108574;-78
2022/05/05 04:04:02;;;;;;;6.30;3.20;;;;;;;10.59;48.53;100533.09;130446;1267;108700;-78
2022/05/05 04:07:08;;;;;;;6.90;3.10;;;;;;;10.65;48.48;100538.05;130359;1267;108920;-78
2022/05/05 04:10:13;;;;;;;5.10;3.30;;;;;;;10.73;48.87;100527.67;130357;1267;108630;-79
2022/05/05 04:13:19;;;;;;;7.30;3.30;;;;;;;10.82;48.41;100528.95;130379;1267;109164;-79
2022/05/05 04:16:25;;;;;;;8.10;3.00;;;;;;;10.87;48.18;100533.75;130325;1267;108670;-79
2022/05/05 04:19:30;;;;;;;5.80;3.10;;;;;;;10.93;48.54;100536.39;130404;1267;108672;-79
2022/05/05 04:22:36;;;;;;;4.80;3.10;;;;;;;10.98;48.52;100533.02;130342;1267;108745;-79
2022/05/05 04:25:42;;;;;;;11.70;3.70;;;;;;;11.06;48.32;100537.65;130300;1267;108756;-78
2022/05/05 04:28:50;;;;;;;4.10;2.70;;;;;;;11.12;48.26;100535.79;130400;1267;108891;-79
2022/05/05 04:31:56;;;;;;;6.70;3.10;;;;;;;11.21;48.45;100536.38;130357;1267;108883;-78
2022/05/05 04:35:02;;;;;;;5.10;2.90;;;;;;;11.28;48.23;100534.45;130373;1267;107678;-78
2022/05/05 04:38:08;;;;;;;5.60;3.10;;;;;;;11.31;48.19;100535.52;130382;1267;109053;-78
2022/05/05 04:41:13;;;;;;;5.60;3.40;;;;;;;11.41;48.28;100530.52;130332;1267;108635;-77
2022/05/05 04:44:19;;;;;;;6.10;3.20;;;;;;;11.53;48.20;100532.52;130377;1267;108884;-77
2022/05/05 04:47:24;;;;;;;6.20;3.20;;;;;;;11.64;48.41;100531.94;130380;1267;108669;-77
2022/05/05 04:50:30;;;;;;;5.60;3.30;;;;;;;11.78;48.16;100530.70;130352;1267;108164;-78
2022/05/05 04:53:35;;;;;;;6.80;3.10;;;;;;;11.94;47.86;100530.03;130360;1267;107715;-77
2022/05/05 04:56:41;;;;;;;6.00;2.90;;;;;;;12.02;47.71;100528.37;130337;1267;108476;-77
2022/05/05 04:59:46;;;;;;;5.00;3.00;;;;;;;12.08;47.92;100525.27;130402;1267;108709;-79
2022/05/05 05:02:52;;;;;;;6.90;3.20;;;;;;;12.18;47.74;100525.84;130357;1267;109155;-76
2022/05/05 05:05:57;;;;;;;5.50;3.50;;;;;;;12.27;47.93;100521.35;130449;1267;108628;-79
2022/05/05 05:09:03;;;;;;;6.50;3.50;;;;;;;12.40;47.75;100523.02;130348;1267;109005;-81
2022/05/05 05:12:10;;;;;;;8.80;3.40;;;;;;;12.63;47.68;100522.25;130412;1267;108732;-81
2022/05/05 05:15:16;;;;;;;6.00;3.30;;;;;;;12.95;47.70;100531.26;130431;1267;108788;-81
2022/05/05 05:18:21;;;;;;;6.80;3.30;;;;;;;13.25;47.57;100529.98;130434;1267;108650;-81
2022/05/05 05:21:26;;;;;;;7.20;3.00;;;;;;;13.51;47.15;100526.08;130426;1267;108674;-81
2022/05/05 05:24:32;;;;;;;7.90;3.30;;;;;;;13.68;47.05;100526.33;130445;1266;108671;-81
2022/05/05 05:27:37;;;;;;;6.20;3.30;;;;;;;13.80;47.03;100523.57;130472;1267;109019;-81
2022/05/05 05:30:43;;;;;;;5.20;3.10;;;;;;;13.87;46.76;100530.16;130470;1267;108951;-80
2022/05/05 05:33:48;;;;;;;5.70;3.40;;;;;;;13.86;46.74;100529.64;130464;1267;108859;-80
2022/05/05 05:36:54;;;;;;;5.20;3.10;;;;;;;13.77;46.79;100534.15;130683;1267;108743;-80
2022/05/05 05:39:59;;;;;;;5.10;3.50;;;;;;;13.77;46.89;100536.42;130854;1267;108677;-81
2022/05/05 05:43:05;;;;;;;4.80;3.50;;;;;;;13.75;46.96;100536.12;130708;1270;108694;-81
2022/05/05 05:46:12;;;;;;;6.00;2.90;;;;;;;13.69;47.00;100542.02;130923;1267;108778;-80
2022/05/05 05:49:17;;;;;;;5.30;3.20;;;;;;;13.64;47.08;100543.02;130891;1268;108817;-80
2022/05/05 05:52:23;;;;;;;4.50;3.10;;;;;;;13.58;47.27;100551.02;130567;1268;108856;-80
2022/05/05 05:55:28;;;;;;;6.70;3.00;;;;;;;13.50;47.49;100554.42;130710;1268;108719;-80
2022/05/05 05:58:36;;;;;;;5.10;3.60;;;;;;;13.42;47.96;100551.49;130940;1268;107627;-80
2022/05/05 06:05:06;;;;;;;5.80;3.60;;;;;;;13.10;48.53;100548.73;130820;1268;107805;-80
2022/05/05 06:08:11;;;;;;;5.60;3.70;;;;;;;12.97;48.87;100550.27;130559;1268;108656;-80
2022/05/05 06:11:18;;;;;;;5.70;3.70;;;;;;;12.83;48.68;100550.30;130519;1268;108861;-80
2022/05/05 06:14:24;;;;;;;5.80;3.50;;;;;;;12.78;48.66;100552.31;130552;1268;108675;-83
2022/05/05 06:17:29;;;;;;;7.80;3.50;;;;;;;12.75;48.87;100552.40;130824;1268;108881;-81
2022/05/05 06:20:35;;;;;;;6.20;3.70;;;;;;;12.81;49.02;100553.10;130684;1268;108956;-81
2022/05/05 06:23:41;;;;;;;5.70;3.50;;;;;;;12.96;48.97;100553.09;131145;1268;108333;-81
2022/05/05 06:26:47;;;;;;;5.50;3.30;;;;;;;13.06;48.89;100553.09;131006;1268;108685;-81
2022/05/05 06:29:52;;;;;;;5.80;3.50;;;;;;;13.21;48.76;100554.28;130842;1268;108725;-81
2022/05/05 06:32:57;;;;;;;9.20;3.60;;;;;;;13.32;48.76;100562.19;130690;1266;108796;-81
2022/05/05 06:36:03;;;;;;;6.70;3.40;;;;;;;13.40;48.65;100561.50;130895;1268;108675;-81
2022/05/05 06:39:09;;;;;;;6.10;3.50;;;;;;;13.47;48.59;100557.33;131489;1268;108816;-81
2022/05/05 06:42:14;;;;;;;6.10;3.60;;;;;;;13.55;48.39;100559.52;131256;1268;108678;-81
2022/05/05 06:45:22;;;;;;;5.70;3.40;;;;;;;13.56;48.14;100557.85;131141;1267;108817;-81
2022/05/05 06:48:28;;;;;;;4.80;3.30;;;;;;;13.53;48.12;100560.26;131284;1267;107556;-81
2022/05/05 06:51:33;;;;;;;5.80;3.30;;;;;;;13.54;48.17;100561.96;131265;1267;108924;-81
2022/05/05 06:54:39;;;;;;;5.30;3.30;;;;;;;13.65;48.23;100563.33;131088;1268;108786;-81
2022/05/05 06:57:46;;;;;;;7.70;3.90;;;;;;;13.79;48.25;100565.25;131497;1268;109193;-82
2022/05/05 07:07:37;;;;;;;6.40;3.60;;;;;;;14.14;48.34;100560.13;131286;1268;107654;-81
2022/05/05 07:10:55;;;;;;;6.70;3.40;;;;;;;14.27;48.17;100554.63;131166;1268;108611;-81
2022/05/05 07:14:00;;;;;;;5.60;3.80;;;;;;;14.36;48.11;100555.42;131274;1268;107654;-81
2022/05/05 07:17:06;;;;;;;6.70;3.50;;;;;;;14.42;48.07;100553.52;131219;1268;109066;-81
2022/05/05 07:20:12;;;;;;;5.80;3.50;;;;;;;14.48;47.98;100555.34;131093;1266;108972;-80
2022/05/05 07:23:17;;;;;;;6.30;3.40;;;;;;;14.55;47.86;100551.34;131043;1268;109089;-82
2022/05/05 07:26:23;;;;;;;5.70;3.80;;;;;;;14.62;47.65;100557.77;131001;1267;108556;-82
2022/05/05 07:29:29;;;;;;;5.80;3.30;;;;;;;14.63;47.57;100554.57;131285;1268;108956;-82
2022/05/05 07:32:35;;;;;;;7.10;3.40;;;;;;;14.71;47.77;100559.73;131200;1267;108677;-82
2022/05/05 07:35:40;;;;;;;6.40;3.60;;;;;;;14.81;47.58;100555.61;130865;1268;108077;-82
2022/05/05 07:38:46;;;;;;;6.20;3.90;;;;;;;14.89;47.82;100556.42;131021;1268;108315;-82
2022/05/05 07:41:52;;;;;;;6.30;3.50;;;;;;;14.98;47.89;100559.61;131146;1268;108847;-82
2022/05/05 07:44:57;;;;;;;6.20;3.80;;;;;;;15.06;47.45;100561.13;131122;1268;108200;-82
2022/05/05 07:48:02;;;;;;;6.50;4.00;;;;;;;15.13;47.52;100563.03;131172;1267;107251;-82
2022/05/05 07:51:08;;;;;;;6.90;3.80;;;;;;;15.21;47.56;100559.07;131256;1268;107683;-80
2022/05/05 07:57:44;;;;;;;9.40;3.70;;;;;;;15.38;47.49;100552.65;131007;1267;108919;-82
2022/05/05 08:00:49;;;;;;;10.00;4.60;;;;;;;15.50;47.50;100547.54;130790;1266;108645;-82
2022/05/05 08:03:55;;;;;;;7.60;4.00;;;;;;;15.60;47.40;100546.73;130770;1268;108742;-82
2022/05/05 08:07:00;;;;;;;5.00;3.50;;;;;;;15.72;47.63;100546.63;130756;1268;107699;-82
2022/05/05 08:10:07;;;;;;;5.50;3.40;;;;;;;15.82;47.18;100546.54;130626;1267;108624;-82
2022/05/05 08:13:13;;;;;;;5.50;3.50;;;;;;;15.92;47.52;100545.69;130645;1267;108648;-82
2022/05/05 08:16:18;;;;;;;8.10;3.50;;;;;;;16.03;47.52;100541.06;130812;1267;108074;-81
2022/05/05 08:19:24;;;;;;;5.40;3.20;;;;;;;16.11;47.36;100538.66;130960;1267;108674;-82
2022/05/05 08:22:30;;;;;;;4.80;3.70;;;;;;;16.21;47.39;100540.69;131194;1267;108702;-82
2022/05/05 08:28:59;;;;;;;6.20;3.90;;;;;;;16.40;46.93;100546.85;131234;1267;108753;-82
2022/05/05 08:32:05;;;;;;;5.90;3.90;;;;;;;16.45;46.85;100545.98;131019;1267;107631;-81
2022/05/05 08:35:11;;;;;;;4.30;3.60;;;;;;;16.55;46.89;100545.08;130975;1267;108011;-81
2022/05/05 08:38:18;;;;;;;6.20;3.60;;;;;;;16.65;46.67;100543.54;130995;1267;108637;-82
2022/05/05 08:41:24;;;;;;;6.80;3.60;;;;;;;16.74;46.99;100546.69;130885;1267;108976;-82
2022/05/05 08:44:29;;;;;;;5.80;3.80;;;;;;;16.84;46.71;100545.72;130820;1267;108819;-81
2022/05/05 08:47:37;;;;;;;6.10;3.70;;;;;;;16.90;46.63;100542.69;130841;1267;108872;-81
2022/05/05 08:50:45;;;;;;;4.80;3.50;;;;;;;16.98;46.52;100543.67;130761;1267;108809;-82
2022/05/05 08:53:54;;;;;;;6.60;4.00;;;;;;;17.08;46.48;100544.88;130719;1267;110113;-82
2022/05/05 08:56:59;;;;;;;5.80;4.10;;;;;;;17.17;46.64;100547.84;131005;1267;107892;-81
2022/05/05 09:00:06;;;;;;;5.70;3.50;;;;;;;17.23;46.38;100549.16;131018;1267;108881;-83
2022/05/05 09:03:12;;;;;;;6.40;3.90;;;;;;;17.31;46.52;100546.10;130925;1267;108862;-82
2022/05/05 09:06:18;;;;;;;5.40;3.70;;;;;;;17.38;46.27;100545.39;131012;1267;108839;-82
2022/05/05 09:09:28;;;;;;;6.70;3.90;;;;;;;17.42;45.94;100543.65;130743;1267;107835;-82
2022/05/05 09:12:35;;;;;;;7.70;3.70;;;;;;;17.44;46.12;100542.97;130718;1267;109035;-82
2022/05/05 09:15:42;;;;;;;5.40;3.80;;;;;;;17.51;46.23;100538.68;130887;1267;108551;-82
2022/05/05 09:18:48;;;;;;;6.50;3.70;;;;;;;17.58;45.72;100543.28;130443;1266;108623;-82
2022/05/05 09:21:54;;;;;;;5.60;3.90;;;;;;;17.58;45.58;100544.08;130668;1267;108498;-82
2022/05/05 09:25:02;;;;;;;8.40;4.20;;;;;;;17.61;45.58;100540.52;131030;1267;108573;-83
2022/05/05 09:28:18;;;;;;;5.50;3.80;;;;;;;17.63;45.47;100537.61;130966;1267;108649;-83
2022/05/05 09:31:23;;;;;;;5.10;3.70;;;;;;;17.64;45.54;100538.02;130832;1267;108716;-82
2022/05/05 09:34:30;;;;;;;7.40;3.90;;;;;;;17.71;45.69;100540.79;130746;1267;108663;-82
2022/05/05 09:37:36;;;;;;;7.00;4.10;;;;;;;17.82;45.71;100545.27;130936;1267;108257;-83
2022/05/05 09:40:42;;;;;;;8.00;4.20;;;;;;;17.89;45.36;100543.20;130916;1267;108760;-83
2022/05/05 09:43:47;;;;;;;6.00;3.90;;;;;;;17.97;45.59;100541.13;130861;1267;108719;-83
2022/05/05 09:46:53;;;;;;;6.10;4.00;;;;;;;18.06;45.57;100541.21;130953;1267;108876;-84
2022/05/05 09:50:00;;;;;;;7.70;4.10;;;;;;;18.14;45.42;100535.67;131166;1267;108898;-83
2022/05/05 09:59:53;;;;;;;5.00;4.10;;;;;;;18.39;45.38;100532.28;130826;1267;108927;-83
2022/05/05 10:06:28;;;;;;;6.90;4.20;;;;;;;18.53;45.08;100521.27;131032;1267;108732;-84
2022/05/05 10:09:35;;;;;;;6.20;4.00;;;;;;;18.58;45.12;100519.80;130840;1266;108869;-83
2022/05/05 10:12:40;;;;;;;6.30;3.90;;;;;;;18.65;45.19;100517.46;130994;1267;107664;-83
2022/05/05 10:15:46;;;;;;;6.80;4.40;;;;;;;18.74;45.13;100522.25;130957;1267;108815;-83
2022/05/05 10:18:52;;;;;;;6.10;3.90;;;;;;;18.78;45.10;100518.21;130815;1267;109166;-82
2022/05/05 10:22:04;;;;;;;6.50;4.10;;;;;;;18.87;45.63;100515.08;130883;1267;108868;-83
2022/05/05 10:25:17;;;;;;;6.90;4.70;;;;;;;19.00;45.50;100518.37;130909;1267;108758;-83
2022/05/05 10:28:34;;;;;;;;;;;;;;;19.07;45.01;100510.35;130740;1267;108981;-83
2022/05/05 10:31:47;;;;;;;6.50;4.00;;;;;;;19.12;45.33;100510.60;130625;1267;108974;-83
2022/05/05 10:35:07;;;;;;;4.40;3.80;;;;;;;19.21;45.38;100507.46;131066;1267;107627;-83
2022/05/05 10:38:42;;;;;;;5.50;3.80;;;;;;;19.32;45.28;100510.15;131048;1267;108952;-83
2022/05/05 10:41:48;;;;;;;5.70;3.80;;;;;;;19.40;45.10;100506.67;130926;1267;108821;-83
2022/05/05 10:45:12;;;;;;;5.90;4.20;;;;;;;19.48;45.02;100503.48;130673;1267;108923;-84
2022/05/05 10:48:31;;;;;;;6.80;4.40;;;;;;;19.56;44.66;100499.16;130512;1267;108779;-83
2022/05/05 10:51:56;;;;;;;6.60;4.60;;;;;;;19.63;44.75;100503.08;130544;1267;108692;-84
2022/05/05 10:55:27;;;;;;;7.60;4.50;;;;;;;19.71;44.61;100494.90;130657;1266;108702;-83
2022/05/05 10:59:02;;;;;;;6.40;4.00;;;;;;;19.75;44.40;100492.84;130677;1267;108946;-83
2022/05/05 11:02:17;;;;;;;5.70;4.10;;;;;;;19.82;44.31;100495.54;130489;1267;108669;-84
2022/05/05 11:05:29;;;;;;;6.10;4.30;;;;;;;19.87;44.58;100488.50;130639;1266;107350;-83
2022/05/05 11:08:35;;;;;;;6.50;4.30;;;;;;;19.95;44.20;100481.30;130544;1267;108652;-83
2022/05/05 11:11:42;;;;;;;6.40;4.40;;;;;;;19.98;44.17;100479.95;130627;1267;108541;-83
2022/05/05 11:21:41;;;;;;;5.30;4.40;;;;;;;20.24;43.54;100478.39;130671;1267;108834;-83
2022/05/05 11:24:50;;;;;;;6.20;4.30;;;;;;;20.26;43.43;100476.71;130574;1267;108877;-83
2022/05/05 11:27:59;;;;;;;5.10;4.20;;;;;;;20.29;43.50;100468.32;130589;1267;108879;-84
2022/05/05 11:31:05;;;;;;;5.90;4.20;;;;;;;20.33;43.50;100470.11;130641;1267;108953;-83
2022/05/05 11:34:11;;;;;;;4.90;4.40;;;;;;;20.38;43.48;100471.30;130717;1266;107008;-83
2022/05/05 11:37:17;;;;;;;5.40;4.70;;;;;;;20.46;43.58;100472.91;130630;1267;108674;-82
2022/05/05 11:40:23;;;;;;;6.70;4.40;;;;;;;20.53;43.39;100471.94;130847;1267;108657;-82
2022/05/05 11:46:53;;;;;;;5.80;5.00;;;;;;;20.70;42.73;100469.07;130549;1267;108649;-83
2022/05/05 11:49:59;;;;;;;6.00;4.60;;;;;;;20.77;42.60;100465.88;130641;1267;108705;-84
2022/05/05 11:53:05;;;;;;;6.50;4.80;;;;;;;21.01;43.06;100465.64;130605;1268;108750;-83
2022/05/05 11:56:15;;;;;;;5.00;4.50;;;;;;;21.21;42.29;100465.70;130569;1268;107812;-83
2022/05/05 12:02:45;;;;;;;6.70;4.90;;;;;;;21.33;42.22;100460.18;130380;1268;107664;-76
2022/05/05 12:05:53;;;;;;;5.70;5.00;;;;;;;21.56;42.36;100456.38;130431;1267;108732;-81
2022/05/05 12:09:00;;;;;;;7.30;4.10;;;;;;;21.75;41.93;100455.48;130451;1267;108562;-82
2022/05/05 12:12:18;;;;;;;4.50;4.10;;;;;;;21.94;42.12;100453.47;130484;1266;108733;-83
2022/05/05 12:15:27;;;;;;;6.50;4.40;;;;;;;22.11;41.59;100451.63;130387;1266;108672;-82
2022/05/05 12:18:32;;;;;;;8.10;5.00;;;;;;;22.22;41.00;100444.30;130554;1267;108371;-82
2022/05/05 12:21:39;;;;;;;6.50;4.20;;;;;;;22.31;41.09;100439.16;130594;1265;108476;-82
2022/05/05 12:24:47;;;;;;;4.90;4.40;;;;;;;22.44;41.00;100434.16;130467;1267;108860;-81
2022/05/05 12:28:08;;;;;;;4.80;4.30;;;;;;;22.60;41.00;100435.10;130733;1267;108719;-82
2022/05/05 12:31:24;;;;;;;7.10;4.80;;;;;;;22.78;40.78;100433.74;130820;1267;108725;-81
2022/05/05 12:34:30;;;;;;;5.80;4.70;;;;;;;22.87;40.20;100429.34;130806;1267;109865;-81
2022/05/05 12:37:36;;;;;;;6.30;4.50;;;;;;;22.96;40.28;100423.03;130642;1267;108588;-82
2022/05/05 12:40:43;;;;;;;5.00;4.50;;;;;;;23.00;40.00;100425.48;130724;1267;108783;-81
2022/05/05 12:43:48;;;;;;;5.90;4.20;;;;;;;22.95;39.89;100420.95;130735;1267;107657;-81
2022/05/05 12:47:02;;;;;;;4.70;4.10;;;;;;;22.87;39.90;100421.27;130679;1267;108848;-82
2022/05/05 12:50:28;;;;;;;7.20;4.30;;;;;;;22.81;40.07;100418.56;130680;1267;108646;-81
2022/05/05 13:00:29;;;;;;;5.80;4.40;;;;;;;22.88;39.43;100409.54;130438;1267;108941;-79
2022/05/05 13:03:36;;;;;;;5.10;4.40;;;;;;;22.93;39.36;100413.90;130367;1267;108744;-83
2022/05/05 13:06:43;;;;;;;4.80;4.20;;;;;;;22.98;38.86;100410.77;130437;1267;108813;-82
2022/05/05 13:09:48;;;;;;;7.70;4.00;;;;;;;22.99;39.16;100405.27;130493;1267;108685;-81
2022/05/05 13:12:53;;;;;;;4.80;4.20;;;;;;;23.04;38.90;100409.63;130289;1267;108810;-82
2022/05/05 13:15:59;;;;;;;5.10;3.90;;;;;;;23.07;38.16;100405.40;130458;1267;109156;-82
2022/05/05 13:19:06;;;;;;;6.00;4.90;;;;;;;23.05;38.21;100399.49;130442;1267;108767;-83
2022/05/05 13:22:11;;;;;;;5.00;4.50;;;;;;;22.99;38.33;100396.40;130458;1267;108689;-82
2022/05/05 13:25:17;;;;;;;5.50;4.70;;;;;;;22.94;37.94;100392.45;130417;1267;108527;-82
2022/05/05 13:28:23;;;;;;;5.10;4.50;;;;;;;22.92;37.94;100393.86;130420;1267;109226;-82
2022/05/05 13:31:28;;;;;;;5.40;4.80;;;;;;;22.92;38.01;100399.38;130383;1267;108863;-82
2022/05/05 13:34:34;;;;;;;5.00;4.50;;;;;;;22.82;37.81;100401.04;130426;1267;108687;-83
2022/05/05 13:37:40;;;;;;;4.80;4.40;;;;;;;22.74;37.60;100403.73;130595;1267;107100;-83
2022/05/05 13:40:46;;;;;;;5.40;4.90;;;;;;;22.79;37.68;100397.98;130496;1267;107693;-83
2022/05/05 13:43:51;;;;;;;5.40;4.60;;;;;;;22.84;37.32;100390.94;130662;1266;108591;-82
2022/05/05 13:46:57;;;;;;;7.00;4.70;;;;;;;22.90;37.60;100391.27;130671;1267;107735;-83
2022/05/05 13:50:03;;;;;;;7.00;4.70;;;;;;;22.99;37.19;100389.16;130617;1267;108827;-83
2022/05/05 13:53:09;;;;;;;5.30;4.80;;;;;;;22.98;36.93;100390.27;130530;1267;108900;-83
2022/05/05 13:56:15;;;;;;;6.10;4.70;;;;;;;22.95;36.96;100389.02;130608;1266;108764;-83
2022/05/05 13:59:21;;;;;;;6.40;4.80;;;;;;;22.89;36.74;100388.50;130479;1267;108749;-83
2022/05/05 14:02:27;;;;;;;5.10;4.60;;;;;;;22.77;36.35;100390.70;130679;1266;107728;-83
2022/05/05 14:05:32;;;;;;;5.30;4.80;;;;;;;22.70;36.23;100387.35;130719;1267;110087;-83
2022/05/05 14:12:15;;;;;;;6.50;4.70;;;;;;;22.67;36.35;100384.83;130623;1267;108755;-82
2022/05/05 14:15:20;;;;;;;4.80;4.30;;;;;;;22.72;36.64;100383.59;130389;1267;108676;-82
2022/05/05 14:18:26;;;;;;;5.40;4.40;;;;;;;22.77;36.40;100381.77;130411;1265;108774;-82
2022/05/05 14:21:31;;;;;;;4.90;4.00;;;;;;;22.76;35.24;100380.44;130507;1267;108789;-82
2022/05/05 14:24:37;;;;;;;6.80;4.60;;;;;;;22.73;36.04;100375.59;130432;1267;108738;-82
2022/05/05 14:27:44;;;;;;;4.90;4.20;;;;;;;22.77;35.88;100377.63;130448;1267;108804;-82
2022/05/05 14:30:50;;;;;;;4.50;4.00;;;;;;;22.81;35.69;100381.77;130385;1267;108769;-82
2022/05/05 14:33:55;;;;;;;6.80;4.30;;;;;;;22.83;35.80;100384.04;130477;1267;108278;-82
2022/05/05 14:37:02;;;;;;;5.00;3.80;;;;;;;22.81;35.47;100381.72;130540;1267;107742;-82
2022/05/05 14:40:09;;;;;;;7.50;5.00;;;;;;;22.78;35.64;100380.16;130631;1267;109075;-82
2022/05/05 14:43:15;;;;;;;7.50;4.70;;;;;;;22.73;35.67;100379.89;130546;1266;108649;-82
2022/05/05 14:46:21;;;;;;;4.80;4.30;;;;;;;22.68;35.34;100377.25;130568;1266;108841;-82
2022/05/05 14:49:27;;;;;;;6.20;4.60;;;;;;;22.65;35.38;100376.66;130571;1267;108642;-82
2022/05/05 14:52:32;;;;;;;5.60;4.60;;;;;;;22.59;34.21;100377.99;130550;1267;109048;-82
2022/05/05 14:55:39;;;;;;;5.50;4.00;;;;;;;22.50;34.17;100372.73;130589;1266;108870;-82
2022/05/05 14:58:46;;;;;;;7.20;5.00;;;;;;;22.44;34.87;100366.02;130734;1266;108898;-83
2022/05/05 15:01:52;;;;;;;4.80;4.30;;;;;;;22.48;35.45;100368.85;130921;1265;108832;-83
2022/05/05 15:04:57;;;;;;;4.30;3.90;;;;;;;22.53;35.20;100370.29;130989;1266;108688;-82
2022/05/05 15:08:05;;;;;;;5.00;4.30;;;;;;;22.58;35.14;100368.05;130649;1266;108804;-82
2022/05/05 15:11:11;;;;;;;5.70;4.50;;;;;;;22.63;35.46;100372.30;130520;1267;108757;-82
2022/05/05 15:14:16;;;;;;;5.50;5.00;;;;;;;22.65;35.23;100367.00;130498;1267;109510;-82